sensor_id;sensor_type;location;lat;lon;timestamp;P1;durP1;ratioP1;P2;durP2;ratioP2
59828;SDS011;45708;51.848;107.620;2023-07-09T00:02:50;16.80;;;7.13;;
59828;SDS011;45708;51.848;107.620;2023-07-09T00:07:51;16.23;;;7.57;;
59828;SDS011;45708;51.848;107.620;2023-07-09T00:12:52;10.30;;;6.20;;
59828;SDS011;45708;51.848;107.620;2023-07-09T00:17:52;13.50;;;8.30;;
59828;SDS011;45708;51.848;107.620;2023-07-09T00:22:53;15.60;;;7.40;;
59828;SDS011;45708;51.848;107.620;2023-07-09T00:27:54;12.38;;;7.30;;
59828;SDS011;45708;51.848;107.620;2023-07-09T00:32:55;11.23;;;6.15;;
59828;SDS011;45708;51.848;107.620;2023-07-09T00:37:56;19.30;;;7.03;;
59828;SDS011;45708;51.848;107.620;2023-07-09T00:42:59;14.40;;;7.30;;
59828;SDS011;45708;51.848;107.620;2023-07-09T00:48:01;11.73;;;6.55;;
59828;SDS011;45708;51.848;107.620;2023-07-09T00:53:09;13.20;;;7.97;;
59828;SDS011;45708;51.848;107.620;2023-07-09T00:58:15;12.75;;;7.72;;
59828;SDS011;45708;51.848;107.620;2023-07-09T01:03:21;13.73;;;8.15;;
59828;SDS011;45708;51.848;107.620;2023-07-09T01:08:28;13.32;;;7.85;;
59828;SDS011;45708;51.848;107.620;2023-07-09T01:13:32;15.63;;;7.82;;
59828;SDS011;45708;51.848;107.620;2023-07-09T01:18:33;13.23;;;6.47;;
59828;SDS011;45708;51.848;107.620;2023-07-09T01:23:34;12.10;;;5.60;;
59828;SDS011;45708;51.848;107.620;2023-07-09T01:28:34;12.27;;;7.10;;
59828;SDS011;45708;51.848;107.620;2023-07-09T01:33:36;18.95;;;9.95;;
59828;SDS011;45708;51.848;107.620;2023-07-09T01:38:37;13.57;;;8.13;;
59828;SDS011;45708;51.848;107.620;2023-07-09T01:43:38;19.88;;;10.23;;
59828;SDS011;45708;51.848;107.620;2023-07-09T01:48:39;18.25;;;8.52;;
59828;SDS011;45708;51.848;107.620;2023-07-09T01:53:40;18.45;;;9.98;;
59828;SDS011;45708;51.848;107.620;2023-07-09T01:58:41;17.58;;;9.63;;
59828;SDS011;45708;51.848;107.620;2023-07-09T02:03:41;17.88;;;10.38;;
59828;SDS011;45708;51.848;107.620;2023-07-09T02:08:42;16.33;;;10.75;;
59828;SDS011;45708;51.848;107.620;2023-07-09T02:13:43;18.88;;;9.85;;
59828;SDS011;45708;51.848;107.620;2023-07-09T02:18:44;17.33;;;9.30;;
59828;SDS011;45708;51.848;107.620;2023-07-09T02:23:44;16.92;;;9.40;;
59828;SDS011;45708;51.848;107.620;2023-07-09T02:28:45;14.57;;;8.98;;
59828;SDS011;45708;51.848;107.620;2023-07-09T02:33:46;15.95;;;8.45;;
59828;SDS011;45708;51.848;107.620;2023-07-09T02:38:47;17.02;;;8.90;;
59828;SDS011;45708;51.848;107.620;2023-07-09T02:43:47;14.48;;;7.40;;
59828;SDS011;45708;51.848;107.620;2023-07-09T02:48:48;14.60;;;9.73;;
59828;SDS011;45708;51.848;107.620;2023-07-09T02:53:49;14.85;;;8.85;;
59828;SDS011;45708;51.848;107.620;2023-07-09T02:58:50;13.98;;;7.80;;
59828;SDS011;45708;51.848;107.620;2023-07-09T03:03:51;15.57;;;8.60;;
59828;SDS011;45708;51.848;107.620;2023-07-09T03:08:55;15.45;;;9.02;;
59828;SDS011;45708;51.848;107.620;2023-07-09T03:13:56;14.60;;;7.25;;
59828;SDS011;45708;51.848;107.620;2023-07-09T03:18:58;15.25;;;7.55;;
59828;SDS011;45708;51.848;107.620;2023-07-09T03:24:00;16.48;;;7.68;;
59828;SDS011;45708;51.848;107.620;2023-07-09T03:29:01;13.73;;;7.43;;
59828;SDS011;45708;51.848;107.620;2023-07-09T03:34:02;13.27;;;6.90;;
59828;SDS011;45708;51.848;107.620;2023-07-09T03:39:03;12.00;;;7.47;;
59828;SDS011;45708;51.848;107.620;2023-07-09T03:44:04;10.82;;;5.97;;
59828;SDS011;45708;51.848;107.620;2023-07-09T03:49:05;8.23;;;4.88;;
59828;SDS011;45708;51.848;107.620;2023-07-09T03:54:06;11.93;;;5.82;;
59828;SDS011;45708;51.848;107.620;2023-07-09T03:59:06;12.02;;;7.57;;
59828;SDS011;45708;51.848;107.620;2023-07-09T04:04:07;10.15;;;6.00;;
59828;SDS011;45708;51.848;107.620;2023-07-09T04:09:08;11.00;;;6.40;;
59828;SDS011;45708;51.848;107.620;2023-07-09T04:14:09;9.05;;;5.90;;
59828;SDS011;45708;51.848;107.620;2023-07-09T04:19:09;9.70;;;6.18;;
59828;SDS011;45708;51.848;107.620;2023-07-09T04:24:10;12.48;;;6.03;;
59828;SDS011;45708;51.848;107.620;2023-07-09T04:29:11;11.35;;;6.25;;
59828;SDS011;45708;51.848;107.620;2023-07-09T04:34:12;10.43;;;5.65;;
59828;SDS011;45708;51.848;107.620;2023-07-09T04:39:13;8.48;;;5.70;;
59828;SDS011;45708;51.848;107.620;2023-07-09T04:44:13;12.05;;;8.27;;
59828;SDS011;45708;51.848;107.620;2023-07-09T04:49:14;9.50;;;5.85;;
59828;SDS011;45708;51.848;107.620;2023-07-09T04:54:15;12.20;;;5.78;;
59828;SDS011;45708;51.848;107.620;2023-07-09T04:59:16;8.07;;;4.80;;
59828;SDS011;45708;51.848;107.620;2023-07-09T05:04:17;10.80;;;5.70;;
59828;SDS011;45708;51.848;107.620;2023-07-09T05:09:17;10.98;;;5.70;;
59828;SDS011;45708;51.848;107.620;2023-07-09T05:14:18;9.38;;;4.95;;
59828;SDS011;45708;51.848;107.620;2023-07-09T05:19:19;6.03;;;4.20;;
59828;SDS011;45708;51.848;107.620;2023-07-09T05:24:20;12.07;;;6.07;;
59828;SDS011;45708;51.848;107.620;2023-07-09T05:29:21;9.93;;;5.90;;
59828;SDS011;45708;51.848;107.620;2023-07-09T05:34:22;5.93;;;4.35;;
59828;SDS011;45708;51.848;107.620;2023-07-09T05:39:23;7.93;;;4.63;;
59828;SDS011;45708;51.848;107.620;2023-07-09T05:44:23;13.00;;;6.53;;
59828;SDS011;45708;51.848;107.620;2023-07-09T05:49:24;7.85;;;5.00;;
59828;SDS011;45708;51.848;107.620;2023-07-09T05:54:25;7.25;;;4.45;;
59828;SDS011;45708;51.848;107.620;2023-07-09T05:59:26;9.10;;;4.70;;
59828;SDS011;45708;51.848;107.620;2023-07-09T06:04:26;8.70;;;5.45;;
59828;SDS011;45708;51.848;107.620;2023-07-09T06:09:27;8.48;;;4.30;;
59828;SDS011;45708;51.848;107.620;2023-07-09T06:14:28;7.30;;;4.63;;
59828;SDS011;45708;51.848;107.620;2023-07-09T06:19:30;6.40;;;4.50;;
59828;SDS011;45708;51.848;107.620;2023-07-09T06:24:31;7.07;;;4.80;;
59828;SDS011;45708;51.848;107.620;2023-07-09T06:29:32;9.25;;;5.15;;
59828;SDS011;45708;51.848;107.620;2023-07-09T06:34:33;6.35;;;4.28;;
59828;SDS011;45708;51.848;107.620;2023-07-09T06:39:34;7.85;;;3.67;;
59828;SDS011;45708;51.848;107.620;2023-07-09T06:44:34;7.53;;;2.95;;
59828;SDS011;45708;51.848;107.620;2023-07-09T06:49:35;6.22;;;3.85;;
59828;SDS011;45708;51.848;107.620;2023-07-09T06:54:36;4.22;;;3.30;;
59828;SDS011;45708;51.848;107.620;2023-07-09T06:59:37;4.22;;;3.13;;
59828;SDS011;45708;51.848;107.620;2023-07-09T07:04:37;5.93;;;3.33;;
59828;SDS011;45708;51.848;107.620;2023-07-09T07:09:38;6.03;;;3.47;;
59828;SDS011;45708;51.848;107.620;2023-07-09T07:14:39;9.63;;;4.93;;
59828;SDS011;45708;51.848;107.620;2023-07-09T07:19:40;5.03;;;3.50;;
59828;SDS011;45708;51.848;107.620;2023-07-09T07:24:40;7.13;;;4.68;;
59828;SDS011;45708;51.848;107.620;2023-07-09T07:29:41;5.32;;;3.50;;
59828;SDS011;45708;51.848;107.620;2023-07-09T07:34:42;6.68;;;3.95;;
59828;SDS011;45708;51.848;107.620;2023-07-09T07:39:43;5.38;;;3.38;;
59828;SDS011;45708;51.848;107.620;2023-07-09T07:44:44;5.15;;;3.67;;
59828;SDS011;45708;51.848;107.620;2023-07-09T07:49:44;7.57;;;4.68;;
59828;SDS011;45708;51.848;107.620;2023-07-09T07:54:45;5.93;;;4.20;;
59828;SDS011;45708;51.848;107.620;2023-07-09T07:59:46;5.68;;;3.63;;
59828;SDS011;45708;51.848;107.620;2023-07-09T08:04:47;9.43;;;8.25;;
59828;SDS011;45708;51.848;107.620;2023-07-09T08:09:48;6.88;;;4.15;;
59828;SDS011;45708;51.848;107.620;2023-07-09T08:14:49;5.82;;;4.18;;
59828;SDS011;45708;51.848;107.620;2023-07-09T08:19:50;7.60;;;4.53;;
59828;SDS011;45708;51.848;107.620;2023-07-09T08:24:52;9.05;;;4.47;;
59828;SDS011;45708;51.848;107.620;2023-07-09T08:29:53;5.90;;;4.63;;
59828;SDS011;45708;51.848;107.620;2023-07-09T08:34:54;8.00;;;4.43;;
59828;SDS011;45708;51.848;107.620;2023-07-09T08:39:55;8.73;;;4.13;;
59828;SDS011;45708;51.848;107.620;2023-07-09T08:50:22;7.63;;;4.00;;
59828;SDS011;45708;51.848;107.620;2023-07-09T08:55:29;6.70;;;3.63;;
59828;SDS011;45708;51.848;107.620;2023-07-09T09:00:55;4.75;;;3.35;;
59828;SDS011;45708;51.848;107.620;2023-07-09T09:05:56;5.88;;;3.22;;
59828;SDS011;45708;51.848;107.620;2023-07-09T09:11:07;3.08;;;2.78;;
59828;SDS011;45708;51.848;107.620;2023-07-09T09:16:26;3.80;;;2.90;;
59828;SDS011;45708;51.848;107.620;2023-07-09T09:21:32;5.53;;;3.42;;
59828;SDS011;45708;51.848;107.620;2023-07-09T09:26:35;9.30;;;6.78;;
59828;SDS011;45708;51.848;107.620;2023-07-09T09:31:39;5.30;;;3.88;;
59828;SDS011;45708;51.848;107.620;2023-07-09T09:36:41;7.63;;;4.90;;
59828;SDS011;45708;51.848;107.620;2023-07-09T09:41:42;6.85;;;3.70;;
59828;SDS011;45708;51.848;107.620;2023-07-09T09:46:44;7.30;;;4.50;;
59828;SDS011;45708;51.848;107.620;2023-07-09T09:51:45;6.10;;;3.55;;
59828;SDS011;45708;51.848;107.620;2023-07-09T09:56:48;6.90;;;4.35;;
59828;SDS011;45708;51.848;107.620;2023-07-09T10:01:59;8.38;;;4.28;;
59828;SDS011;45708;51.848;107.620;2023-07-09T10:07:04;5.65;;;4.25;;
59828;SDS011;45708;51.848;107.620;2023-07-09T10:33:13;8.73;;;6.05;;
59828;SDS011;45708;51.848;107.620;2023-07-09T10:38:30;9.25;;;4.43;;
59828;SDS011;45708;51.848;107.620;2023-07-09T10:43:47;9.88;;;5.43;;
59828;SDS011;45708;51.848;107.620;2023-07-09T10:48:54;8.07;;;4.50;;
59828;SDS011;45708;51.848;107.620;2023-07-09T10:54:04;6.20;;;4.63;;
59828;SDS011;45708;51.848;107.620;2023-07-09T11:05:14;10.63;;;4.97;;
59828;SDS011;45708;51.848;107.620;2023-07-09T11:10:01;8.23;;;4.47;;
59828;SDS011;45708;51.848;107.620;2023-07-09T11:15:18;10.05;;;4.68;;
59828;SDS011;45708;51.848;107.620;2023-07-09T11:20:32;9.43;;;5.13;;
59828;SDS011;45708;51.848;107.620;2023-07-09T11:25:45;8.27;;;4.43;;
59828;SDS011;45708;51.848;107.620;2023-07-09T11:30:54;10.30;;;4.78;;
59828;SDS011;45708;51.848;107.620;2023-07-09T11:36:11;5.95;;;3.97;;
59828;SDS011;45708;51.848;107.620;2023-07-09T11:46:48;8.07;;;4.60;;
59828;SDS011;45708;51.848;107.620;2023-07-09T11:52:10;6.85;;;4.13;;
59828;SDS011;45708;51.848;107.620;2023-07-09T11:57:12;8.10;;;4.22;;
59828;SDS011;45708;51.848;107.620;2023-07-09T12:02:19;7.45;;;4.25;;
59828;SDS011;45708;51.848;107.620;2023-07-09T12:07:22;6.65;;;4.15;;
59828;SDS011;45708;51.848;107.620;2023-07-09T12:12:25;8.52;;;3.72;;
59828;SDS011;45708;51.848;107.620;2023-07-09T12:17:26;6.95;;;3.85;;
59828;SDS011;45708;51.848;107.620;2023-07-09T12:22:27;8.52;;;4.63;;
59828;SDS011;45708;51.848;107.620;2023-07-09T12:27:30;7.45;;;3.70;;
59828;SDS011;45708;51.848;107.620;2023-07-09T12:32:31;7.97;;;4.85;;
59828;SDS011;45708;51.848;107.620;2023-07-09T12:37:32;8.57;;;5.55;;
59828;SDS011;45708;51.848;107.620;2023-07-09T12:42:34;9.77;;;4.95;;
59828;SDS011;45708;51.848;107.620;2023-07-09T12:47:37;7.32;;;4.78;;
59828;SDS011;45708;51.848;107.620;2023-07-09T12:52:44;9.00;;;4.70;;
59828;SDS011;45708;51.848;107.620;2023-07-09T12:57:49;8.27;;;4.80;;
59828;SDS011;45708;51.848;107.620;2023-07-09T13:02:54;8.73;;;4.03;;
59828;SDS011;45708;51.848;107.620;2023-07-09T13:07:59;9.35;;;4.63;;
59828;SDS011;45708;51.848;107.620;2023-07-09T13:13:02;8.20;;;4.15;;
59828;SDS011;45708;51.848;107.620;2023-07-09T13:18:05;8.73;;;4.25;;
59828;SDS011;45708;51.848;107.620;2023-07-09T13:23:11;9.50;;;5.25;;
59828;SDS011;45708;51.848;107.620;2023-07-09T13:28:18;7.80;;;4.77;;
59828;SDS011;45708;51.848;107.620;2023-07-09T13:33:24;9.35;;;4.40;;
59828;SDS011;45708;51.848;107.620;2023-07-09T13:38:25;10.63;;;5.18;;
59828;SDS011;45708;51.848;107.620;2023-07-09T13:43:30;9.70;;;4.95;;
59828;SDS011;45708;51.848;107.620;2023-07-09T13:48:33;7.88;;;4.65;;
59828;SDS011;45708;51.848;107.620;2023-07-09T13:53:35;8.52;;;5.20;;
59828;SDS011;45708;51.848;107.620;2023-07-09T13:58:35;9.27;;;5.25;;
59828;SDS011;45708;51.848;107.620;2023-07-09T14:03:36;7.78;;;4.93;;
59828;SDS011;45708;51.848;107.620;2023-07-09T14:08:37;9.65;;;5.00;;
59828;SDS011;45708;51.848;107.620;2023-07-09T14:13:38;8.63;;;4.63;;
59828;SDS011;45708;51.848;107.620;2023-07-09T14:18:39;9.32;;;4.72;;
59828;SDS011;45708;51.848;107.620;2023-07-09T14:23:40;8.90;;;4.07;;
59828;SDS011;45708;51.848;107.620;2023-07-09T14:28:41;10.43;;;4.13;;
59828;SDS011;45708;51.848;107.620;2023-07-09T14:33:42;9.10;;;4.00;;
59828;SDS011;45708;51.848;107.620;2023-07-09T14:38:43;10.60;;;5.15;;
59828;SDS011;45708;51.848;107.620;2023-07-09T14:43:44;9.93;;;4.97;;
59828;SDS011;45708;51.848;107.620;2023-07-09T14:48:45;6.07;;;3.63;;
59828;SDS011;45708;51.848;107.620;2023-07-09T14:53:46;7.45;;;4.90;;
59828;SDS011;45708;51.848;107.620;2023-07-09T14:58:47;11.23;;;5.10;;
59828;SDS011;45708;51.848;107.620;2023-07-09T15:03:48;9.32;;;4.05;;
59828;SDS011;45708;51.848;107.620;2023-07-09T15:08:48;6.60;;;3.83;;
59828;SDS011;45708;51.848;107.620;2023-07-09T15:13:49;7.30;;;4.80;;
59828;SDS011;45708;51.848;107.620;2023-07-09T15:18:50;7.05;;;4.70;;
59828;SDS011;45708;51.848;107.620;2023-07-09T15:23:51;11.00;;;5.15;;
59828;SDS011;45708;51.848;107.620;2023-07-09T15:28:52;8.18;;;4.63;;
59828;SDS011;45708;51.848;107.620;2023-07-09T15:33:52;7.80;;;4.80;;
59828;SDS011;45708;51.848;107.620;2023-07-09T15:38:53;11.45;;;5.15;;
59828;SDS011;45708;51.848;107.620;2023-07-09T15:43:54;7.13;;;3.90;;
59828;SDS011;45708;51.848;107.620;2023-07-09T15:48:55;6.50;;;4.55;;
59828;SDS011;45708;51.848;107.620;2023-07-09T15:53:56;7.18;;;4.53;;
59828;SDS011;45708;51.848;107.620;2023-07-09T15:58:58;8.30;;;4.60;;
59828;SDS011;45708;51.848;107.620;2023-07-09T16:04:01;7.82;;;5.25;;
59828;SDS011;45708;51.848;107.620;2023-07-09T16:09:02;9.25;;;5.25;;
59828;SDS011;45708;51.848;107.620;2023-07-09T16:14:04;8.43;;;5.05;;
59828;SDS011;45708;51.848;107.620;2023-07-09T16:19:21;10.43;;;5.43;;
59828;SDS011;45708;51.848;107.620;2023-07-09T16:24:33;10.18;;;4.70;;
59828;SDS011;45708;51.848;107.620;2023-07-09T16:29:35;9.07;;;4.43;;
59828;SDS011;45708;51.848;107.620;2023-07-09T16:34:36;8.20;;;4.82;;
59828;SDS011;45708;51.848;107.620;2023-07-09T16:39:40;8.05;;;5.10;;
59828;SDS011;45708;51.848;107.620;2023-07-09T16:44:42;8.60;;;3.88;;
59828;SDS011;45708;51.848;107.620;2023-07-09T16:49:43;6.53;;;4.35;;
59828;SDS011;45708;51.848;107.620;2023-07-09T16:54:45;7.22;;;4.35;;
59828;SDS011;45708;51.848;107.620;2023-07-09T16:59:46;9.45;;;5.07;;
59828;SDS011;45708;51.848;107.620;2023-07-09T17:04:48;7.53;;;3.65;;
59828;SDS011;45708;51.848;107.620;2023-07-09T17:09:49;8.98;;;5.15;;
59828;SDS011;45708;51.848;107.620;2023-07-09T17:14:52;7.85;;;3.92;;
59828;SDS011;45708;51.848;107.620;2023-07-09T17:19:53;9.23;;;4.80;;
59828;SDS011;45708;51.848;107.620;2023-07-09T17:24:54;11.68;;;5.38;;
59828;SDS011;45708;51.848;107.620;2023-07-09T17:29:55;6.60;;;4.43;;
59828;SDS011;45708;51.848;107.620;2023-07-09T17:34:56;8.02;;;4.45;;
59828;SDS011;45708;51.848;107.620;2023-07-09T17:39:57;9.63;;;4.18;;
59828;SDS011;45708;51.848;107.620;2023-07-09T17:44:57;9.88;;;5.05;;
59828;SDS011;45708;51.848;107.620;2023-07-09T17:49:58;10.77;;;5.15;;
59828;SDS011;45708;51.848;107.620;2023-07-09T17:54:59;10.85;;;4.85;;
59828;SDS011;45708;51.848;107.620;2023-07-09T18:00:00;8.15;;;4.45;;
59828;SDS011;45708;51.848;107.620;2023-07-09T18:05:00;9.32;;;4.88;;
59828;SDS011;45708;51.848;107.620;2023-07-09T18:10:03;10.90;;;4.35;;
59828;SDS011;45708;51.848;107.620;2023-07-09T18:15:04;8.02;;;3.85;;
59828;SDS011;45708;51.848;107.620;2023-07-09T18:20:07;7.60;;;4.95;;
59828;SDS011;45708;51.848;107.620;2023-07-09T18:25:16;6.68;;;4.32;;
59828;SDS011;45708;51.848;107.620;2023-07-09T18:30:22;6.45;;;4.20;;
59828;SDS011;45708;51.848;107.620;2023-07-09T18:35:29;10.00;;;4.53;;
59828;SDS011;45708;51.848;107.620;2023-07-09T18:40:41;7.95;;;3.75;;
59828;SDS011;45708;51.848;107.620;2023-07-09T18:45:44;6.82;;;4.03;;
59828;SDS011;45708;51.848;107.620;2023-07-09T18:50:46;10.18;;;5.32;;
59828;SDS011;45708;51.848;107.620;2023-07-09T18:55:48;9.48;;;5.85;;
59828;SDS011;45708;51.848;107.620;2023-07-09T19:00:49;7.10;;;3.90;;
59828;SDS011;45708;51.848;107.620;2023-07-09T19:05:51;7.10;;;4.20;;
59828;SDS011;45708;51.848;107.620;2023-07-09T19:10:51;8.73;;;4.07;;
59828;SDS011;45708;51.848;107.620;2023-07-09T19:15:53;9.30;;;5.22;;
59828;SDS011;45708;51.848;107.620;2023-07-09T19:20:54;6.65;;;4.20;;
59828;SDS011;45708;51.848;107.620;2023-07-09T19:25:56;10.85;;;4.45;;
59828;SDS011;45708;51.848;107.620;2023-07-09T19:30:57;7.80;;;4.13;;
59828;SDS011;45708;51.848;107.620;2023-07-09T19:35:58;11.48;;;5.30;;
59828;SDS011;45708;51.848;107.620;2023-07-09T19:40:59;9.32;;;4.65;;
59828;SDS011;45708;51.848;107.620;2023-07-09T19:45:59;9.80;;;4.93;;
59828;SDS011;45708;51.848;107.620;2023-07-09T19:51:00;7.47;;;4.85;;
59828;SDS011;45708;51.848;107.620;2023-07-09T19:56:01;8.82;;;5.72;;
59828;SDS011;45708;51.848;107.620;2023-07-09T20:01:02;10.52;;;5.93;;
59828;SDS011;45708;51.848;107.620;2023-07-09T20:06:03;12.25;;;7.07;;
59828;SDS011;45708;51.848;107.620;2023-07-09T20:11:04;7.82;;;5.53;;
59828;SDS011;45708;51.848;107.620;2023-07-09T20:16:21;7.13;;;4.40;;
59828;SDS011;45708;51.848;107.620;2023-07-09T20:21:25;6.72;;;3.80;;
59828;SDS011;45708;51.848;107.620;2023-07-09T20:26:27;10.00;;;5.22;;
59828;SDS011;45708;51.848;107.620;2023-07-09T20:31:28;6.85;;;3.97;;
59828;SDS011;45708;51.848;107.620;2023-07-09T20:36:28;6.18;;;4.50;;
59828;SDS011;45708;51.848;107.620;2023-07-09T20:41:29;8.85;;;4.40;;
59828;SDS011;45708;51.848;107.620;2023-07-09T20:46:30;5.35;;;3.88;;
59828;SDS011;45708;51.848;107.620;2023-07-09T20:51:31;8.50;;;4.65;;
59828;SDS011;45708;51.848;107.620;2023-07-09T20:56:31;9.90;;;4.65;;
59828;SDS011;45708;51.848;107.620;2023-07-09T21:01:32;10.70;;;5.57;;
59828;SDS011;45708;51.848;107.620;2023-07-09T21:06:33;8.40;;;5.03;;
59828;SDS011;45708;51.848;107.620;2023-07-09T21:11:34;9.20;;;4.95;;
59828;SDS011;45708;51.848;107.620;2023-07-09T21:16:35;10.55;;;5.03;;
59828;SDS011;45708;51.848;107.620;2023-07-09T21:21:35;9.68;;;5.18;;
59828;SDS011;45708;51.848;107.620;2023-07-09T21:26:36;6.30;;;4.60;;
59828;SDS011;45708;51.848;107.620;2023-07-09T21:31:37;11.13;;;5.55;;
59828;SDS011;45708;51.848;107.620;2023-07-09T21:36:39;8.93;;;4.93;;
59828;SDS011;45708;51.848;107.620;2023-07-09T21:41:40;8.07;;;4.20;;
59828;SDS011;45708;51.848;107.620;2023-07-09T21:46:41;10.20;;;5.38;;
59828;SDS011;45708;51.848;107.620;2023-07-09T21:51:44;10.30;;;5.97;;
59828;SDS011;45708;51.848;107.620;2023-07-09T21:56:45;9.02;;;5.38;;
59828;SDS011;45708;51.848;107.620;2023-07-09T22:01:47;11.35;;;5.68;;
59828;SDS011;45708;51.848;107.620;2023-07-09T22:06:50;10.77;;;6.35;;
59828;SDS011;45708;51.848;107.620;2023-07-09T22:11:51;10.45;;;5.68;;
59828;SDS011;45708;51.848;107.620;2023-07-09T22:16:53;8.43;;;4.88;;
59828;SDS011;45708;51.848;107.620;2023-07-09T22:21:54;13.82;;;6.05;;
59828;SDS011;45708;51.848;107.620;2023-07-09T22:26:55;11.93;;;6.57;;
59828;SDS011;45708;51.848;107.620;2023-07-09T22:31:56;9.15;;;5.30;;
59828;SDS011;45708;51.848;107.620;2023-07-09T22:36:56;11.38;;;6.07;;
59828;SDS011;45708;51.848;107.620;2023-07-09T22:41:57;12.02;;;5.72;;
59828;SDS011;45708;51.848;107.620;2023-07-09T22:46:58;10.38;;;5.20;;
59828;SDS011;45708;51.848;107.620;2023-07-09T22:51:59;10.00;;;5.80;;
59828;SDS011;45708;51.848;107.620;2023-07-09T22:57:00;9.73;;;5.32;;
59828;SDS011;45708;51.848;107.620;2023-07-09T23:02:01;10.73;;;6.45;;
59828;SDS011;45708;51.848;107.620;2023-07-09T23:07:17;10.73;;;5.05;;
59828;SDS011;45708;51.848;107.620;2023-07-09T23:12:18;13.55;;;6.05;;
59828;SDS011;45708;51.848;107.620;2023-07-09T23:17:18;11.55;;;6.00;;
59828;SDS011;45708;51.848;107.620;2023-07-09T23:22:19;13.23;;;6.50;;
59828;SDS011;45708;51.848;107.620;2023-07-09T23:27:20;10.27;;;5.93;;
59828;SDS011;45708;51.848;107.620;2023-07-09T23:32:21;10.88;;;6.22;;
59828;SDS011;45708;51.848;107.620;2023-07-09T23:37:21;14.25;;;5.60;;
59828;SDS011;45708;51.848;107.620;2023-07-09T23:42:22;10.27;;;5.50;;
59828;SDS011;45708;51.848;107.620;2023-07-09T23:47:23;13.63;;;6.55;;
59828;SDS011;45708;51.848;107.620;2023-07-09T23:52:24;14.93;;;6.57;;
59828;SDS011;45708;51.848;107.620;2023-07-09T23:57:25;12.45;;;6.63;;
